Airfield :
LOGIN :

Register | Disclaimer

   EN    FR    IT 

 










Legend :    VFR   Marginal VFR   IFR   Intensive IFR   Very Intensive IFR
Visi :
Ceiling :
>= 8 km
>= 3000ft
5 to 8 km
1000 to 3000 ft
1500m to 5 km
500 to 1000 ft
800 to 1500m
200 to 500 ft
< 800m
< 200 ft
Symbols :   Thunderstorms  Fog  Heavy snow  Heavy precipitations  Wind > 20 kt
SIGMETs :     Misc.  Thunderstorms  Icing  Turbulence  Mountain Waves  Volcanic Ashes







- Airport Elevation : 915 ft
- IATA code : LUG


LSZA - Lugano

CURRENT METAR :
  • 231750Z 35003KT 310V070 9000 -RA FEW008 BKN030 BKN050 11/10 Q1019 NOSIG

EXPIRED METARs :
  • 231720Z VRB01KT 3500 RA BR FEW005 SCT020 BKN030 10/10 Q1019 NOSIG
  • 231650Z VRB03KT 3000 RA BR FEW005 BKN030 OVC040 11/10 Q1018 NOSIG
  • 231620Z 20003KT 5000 RA BR FEW005 BKN030 OVC040 11/10 Q1018 NOSIG
  • 231550Z VRB03KT 6000 -RA FEW007 BKN032 OVC040 11/11 Q1017 NOSIG
  • 231520Z VRB01KT 8000 -RA FEW015 BKN034 OVC045 12/10 Q1016 NOSIG

TAF TAF LSZA
Valid from the 23 at 15:00 until the 24 at 00:00 UTC


231425Z 2315/2324 VRB03KT 9000 FEW015 SCT030 BKN050
TEMPO 2315/2324 SHRA SCT030TCU
PROB30
TEMPO 2315/2322 3000 TSRA SCT030CB
ATIS : +41 22 417 40 88
No reported NOTAMs for that airfield.



MET'MAP, your aeronautical weather chart ! - Copyright ORBIFLY December 2007 - Disclaimer

ORBIFLY MET'MAP TEAM :

Programming & Development : Alexandra Zaïnal
Concept & Development : Baudouin d'Aumeries
Co-Development & Prog : Marc-Olivier Méhu
Technical & hardware support : Manuel Goepfert

Contact : metmap@orbifly.com




SOURCES & CREDITS :

   NOAA